Time;durP1;ratioP1;P1;durP2;ratioP2;P2;SDS_P1;SDS_P2;PMS_P1;PMS_P2;Temp;Humidity;BMP_temperature;BMP_pressure;BME280_temperature;BME280_humidity;BME280_pressure;Samples;Min_cycle;Max_cycle;Signal;HPM_P1;HPM_P2
2022/04/24 00:01:33;;;;;;;9.73;4.03;;;;;;;5.68;97.49;100757.41;5077724;28;20461;-77
2022/04/24 00:03:58;;;;;;;7.60;4.15;;;;;;;5.71;97.60;100757.19;5070829;28;20108;-78
2022/04/24 00:06:24;;;;;;;9.27;4.35;;;;;;;5.60;97.85;100752.78;5072129;28;20039;-78
2022/04/24 00:08:51;;;;;;;7.30;4.78;;;;;;;5.62;99.07;100752.69;5084834;28;20032;-77
2022/04/24 00:11:17;;;;;;;5.82;4.35;;;;;;;5.59;99.62;100753.72;5085682;28;20036;-78
2022/04/24 00:13:43;;;;;;;7.95;4.75;;;;;;;5.50;100.00;100754.44;5052296;28;20039;-79
2022/04/24 00:16:09;;;;;;;8.50;4.82;;;;;;;5.49;100.00;100752.75;5084594;28;20101;-76
2022/04/24 00:18:37;;;;;;;9.38;4.70;;;;;;;5.55;100.00;100761.88;5082815;28;20034;-78
2022/04/24 00:21:06;;;;;;;11.65;4.57;;;;;;;5.57;100.00;100762.59;5082434;28;20078;-79
2022/04/24 00:23:32;;;;;;;7.22;4.85;;;;;;;5.54;100.00;100758.47;5083411;28;20061;-77
2022/04/24 00:25:58;;;;;;;10.73;4.70;;;;;;;5.51;100.00;100756.06;5085684;28;20410;-77
2022/04/24 00:28:24;;;;;;;10.18;4.40;;;;;;;5.38;100.00;100755.31;5078712;28;20500;-80
2022/04/24 00:30:49;;;;;;;6.70;4.57;;;;;;;5.36;100.00;100760.63;5067143;28;20093;-79
2022/04/24 00:33:15;;;;;;;7.53;5.00;;;;;;;5.37;100.00;100753.66;5068835;28;20039;-78
2022/04/24 00:35:40;;;;;;;6.63;5.20;;;;;;;5.32;100.00;100741.00;5051055;28;20158;-78
2022/04/24 00:38:07;;;;;;;9.13;4.90;;;;;;;5.28;100.00;100743.94;5049437;28;20044;-78
2022/04/24 00:40:33;;;;;;;9.13;5.72;;;;;;;5.20;100.00;100744.50;5084593;28;20032;-78
2022/04/24 00:42:58;;;;;;;11.25;5.60;;;;;;;5.17;100.00;100752.50;5068352;28;20047;-79
2022/04/24 00:45:38;;;;;;;9.27;5.47;;;;;;;5.20;100.00;100754.91;5067967;28;20032;-78
2022/04/24 00:48:04;;;;;;;8.85;5.32;;;;;;;5.20;100.00;100745.31;5057307;28;20040;-78
2022/04/24 00:50:30;;;;;;;6.43;5.50;;;;;;;5.09;100.00;100732.28;5070011;28;20071;-78
2022/04/24 00:52:56;;;;;;;8.27;5.30;;;;;;;5.14;100.00;100750.97;5072022;28;20042;-78
2022/04/24 00:55:23;;;;;;;10.30;5.35;;;;;;;5.15;100.00;100760.41;5086009;28;20333;-79
2022/04/24 00:57:49;;;;;;;8.90;5.22;;;;;;;5.09;100.00;100745.28;5088958;28;20051;-78
2022/04/24 01:00:15;;;;;;;9.32;5.28;;;;;;;5.02;100.00;100744.06;5071779;28;20696;-79
2022/04/24 01:02:41;;;;;;;6.40;4.80;;;;;;;4.94;100.00;100742.00;5104340;28;20042;-80
2022/04/24 01:05:08;;;;;;;7.03;4.95;;;;;;;4.98;100.00;100753.00;5068075;28;20804;-78
2022/04/24 01:07:34;;;;;;;9.45;4.88;;;;;;;4.85;100.00;100751.28;5080336;28;20088;-80
2022/04/24 01:10:00;;;;;;;8.40;4.93;;;;;;;4.94;100.00;100760.19;5055829;28;20036;-79
2022/04/24 01:12:27;;;;;;;7.70;4.72;;;;;;;4.88;100.00;100766.66;5088958;28;20059;-79
2022/04/24 01:14:52;;;;;;;5.38;4.35;;;;;;;4.88;100.00;100761.47;5071695;28;20830;-78
2022/04/24 01:17:18;;;;;;;7.78;4.85;;;;;;;4.73;100.00;100743.50;5071335;28;20043;-79
2022/04/24 01:19:44;;;;;;;7.45;4.72;;;;;;;4.82;100.00;100754.13;5088828;28;20039;-79
2022/04/24 01:22:10;;;;;;;6.18;4.63;;;;;;;4.83;100.00;100754.94;5087208;28;20036;-79
2022/04/24 01:24:35;;;;;;;10.52;5.00;;;;;;;4.88;100.00;100753.66;5071700;28;20570;-78
2022/04/24 01:27:01;;;;;;;7.80;4.22;;;;;;;4.93;100.00;100755.09;5072481;28;20052;-79
2022/04/24 01:29:27;;;;;;;7.90;4.55;;;;;;;4.96;100.00;100754.91;5087902;28;20571;-79
2022/04/24 01:31:52;;;;;;;9.70;4.72;;;;;;;4.85;100.00;100747.84;5089061;28;20133;-78
2022/04/24 01:34:19;;;;;;;7.90;4.25;;;;;;;4.93;100.00;100755.09;5070870;28;20130;-77
2022/04/24 01:36:45;;;;;;;6.65;4.35;;;;;;;4.97;100.00;100748.75;5090526;28;20032;-78
2022/04/24 01:39:11;;;;;;;10.45;4.63;;;;;;;5.00;100.00;100746.75;5073445;28;20500;-77
2022/04/24 01:41:37;;;;;;;8.02;5.00;;;;;;;5.02;100.00;100749.25;5079577;28;20141;-78
2022/04/24 01:44:03;;;;;;;9.63;4.75;;;;;;;4.91;100.00;100733.59;5067511;28;20501;-77
2022/04/24 01:46:28;;;;;;;10.02;4.38;;;;;;;4.93;100.00;100745.53;5104704;28;20028;-78
2022/04/24 01:48:54;;;;;;;6.47;4.20;;;;;;;5.01;100.00;100747.56;5072683;28;20028;-77
2022/04/24 01:51:20;;;;;;;7.72;4.50;;;;;;;4.93;100.00;100734.31;5070425;28;20036;-79
2022/04/24 01:53:45;;;;;;;7.80;4.32;;;;;;;4.99;100.00;100754.66;5071796;28;20032;-77
2022/04/24 01:56:12;;;;;;;7.25;4.18;;;;;;;4.93;100.00;100736.91;5070146;28;20028;-77
2022/04/24 01:58:39;;;;;;;7.00;4.18;;;;;;;4.91;100.00;100734.41;5071651;28;20036;-77
2022/04/24 02:01:06;;;;;;;9.95;4.78;;;;;;;4.91;100.00;100738.78;5088392;28;20051;-78
2022/04/24 02:03:33;;;;;;;8.48;4.35;;;;;;;4.88;100.00;100734.66;5056504;28;20445;-77
2022/04/24 02:06:00;;;;;;;8.13;4.53;;;;;;;4.84;100.00;100730.59;5090799;28;20059;-76
2022/04/24 02:08:27;;;;;;;6.90;4.25;;;;;;;4.79;100.00;100728.34;5061626;28;20043;-76
2022/04/24 02:10:52;;;;;;;9.77;3.70;;;;;;;4.83;100.00;100736.75;5094358;28;20047;-76
2022/04/24 02:13:19;;;;;;;8.43;4.00;;;;;;;4.85;100.00;100743.47;5070337;28;20044;-76
2022/04/24 02:15:46;;;;;;;9.27;4.22;;;;;;;4.80;100.00;100729.16;5089594;28;20032;-76
2022/04/24 02:18:11;;;;;;;5.95;4.18;;;;;;;4.78;100.00;100733.63;5072450;28;20442;-76
2022/04/24 02:20:37;;;;;;;12.48;4.43;;;;;;;4.77;100.00;100724.19;5078143;28;20142;-76
2022/04/24 02:23:03;;;;;;;8.30;3.58;;;;;;;4.71;100.00;100716.81;5070966;28;20383;-77
2022/04/24 02:25:29;;;;;;;9.73;4.18;;;;;;;4.80;100.00;100724.81;5088214;28;20028;-78
2022/04/24 02:27:56;;;;;;;8.02;4.13;;;;;;;4.84;100.00;100730.59;5069855;28;20038;-78
2022/04/24 02:30:24;;;;;;;8.35;3.90;;;;;;;4.91;100.00;100726.63;5069706;28;20032;-79
2022/04/24 02:32:50;;;;;;;6.78;3.80;;;;;;;4.87;100.00;100715.59;5087529;28;20482;-78
2022/04/24 02:35:16;;;;;;;9.75;4.13;;;;;;;4.90;100.00;100727.56;5086213;28;20082;-80
2022/04/24 02:37:42;;;;;;;12.27;4.22;;;;;;;4.86;100.00;100710.53;5104282;28;20070;-80
2022/04/24 02:40:09;;;;;;;9.52;4.18;;;;;;;4.91;100.00;100725.78;5086542;28;20044;-80
2022/04/24 02:42:37;;;;;;;8.20;3.60;;;;;;;4.95;100.00;100730.66;5084117;28;20036;-80
2022/04/24 02:45:04;;;;;;;6.55;3.47;;;;;;;4.90;100.00;100729.31;5085683;28;20040;-79
2022/04/24 02:47:30;;;;;;;9.05;4.30;;;;;;;4.95;100.00;100730.66;5087545;28;20055;-79
2022/04/24 02:49:56;;;;;;;7.10;3.78;;;;;;;4.84;100.00;100718.44;5070969;28;20439;-79
2022/04/24 02:52:21;;;;;;;6.63;3.70;;;;;;;4.92;100.00;100723.09;5085751;28;20065;-79
2022/04/24 02:54:47;;;;;;;7.72;3.60;;;;;;;4.93;100.00;100722.13;5053299;28;20528;-79
2022/04/24 02:57:13;;;;;;;7.50;3.90;;;;;;;4.91;100.00;100715.41;5069103;28;20454;-79
2022/04/24 02:59:42;;;;;;;5.43;3.88;;;;;;;4.93;100.00;100716.13;5087361;28;20122;-78
2022/04/24 03:02:09;;;;;;;9.38;4.18;;;;;;;4.88;100.00;100719.06;5086064;28;20047;-79
2022/04/24 03:04:35;;;;;;;9.02;4.10;;;;;;;4.91;100.00;100721.41;5087361;28;20067;-79
2022/04/24 03:07:01;;;;;;;6.45;3.83;;;;;;;4.86;100.00;100708.78;5085087;28;20469;-78
2022/04/24 03:09:27;;;;;;;6.97;3.97;;;;;;;4.89;100.00;100705.09;5100987;28;20055;-79
2022/04/24 03:11:52;;;;;;;5.32;3.67;;;;;;;4.88;100.00;100706.06;5061660;28;20531;-79
2022/04/24 03:14:18;;;;;;;7.50;4.00;;;;;;;4.85;100.00;100709.69;5084844;28;20032;-80
2022/04/24 03:16:44;;;;;;;6.90;4.00;;;;;;;4.79;100.00;100704.13;5085288;28;20112;-78
2022/04/24 03:19:09;;;;;;;7.15;4.05;;;;;;;4.72;100.00;100688.13;5085995;28;20051;-79
2022/04/24 03:21:35;;;;;;;12.52;4.40;;;;;;;4.78;100.00;100703.28;5084675;28;20115;-79
2022/04/24 03:24:00;;;;;;;12.02;4.30;;;;;;;4.67;100.00;100677.22;5050169;28;20036;-81
2022/04/24 03:26:26;;;;;;;10.43;4.97;;;;;;;4.61;100.00;100683.69;5086201;28;20032;-79
2022/04/24 03:28:51;;;;;;;8.88;4.28;;;;;;;4.64;100.00;100693.06;5089119;28;20032;-80
2022/04/24 03:31:17;;;;;;;7.13;4.18;;;;;;;4.57;100.00;100695.25;5050221;28;20047;-79
2022/04/24 03:33:43;;;;;;;7.65;4.43;;;;;;;4.56;100.00;100695.34;5086692;28;20038;-79
2022/04/24 03:36:09;;;;;;;9.70;4.82;;;;;;;4.43;100.00;100680.66;5067925;28;20028;-79
2022/04/24 03:38:34;;;;;;;9.18;4.30;;;;;;;4.47;100.00;100691.66;5058401;28;20032;-79
2022/04/24 03:41:00;;;;;;;8.30;4.63;;;;;;;4.44;100.00;100690.06;5082608;28;20406;-79
2022/04/24 03:43:25;;;;;;;10.77;4.40;;;;;;;4.33;100.00;100679.63;5069725;28;20036;-78
2022/04/24 03:45:51;;;;;;;8.18;4.50;;;;;;;4.24;100.00;100681.09;5069701;28;20023;-79
2022/04/24 03:48:17;;;;;;;9.50;5.10;;;;;;;4.17;100.00;100676.44;5069198;28;20043;-80
2022/04/24 03:50:42;;;;;;;7.25;4.40;;;;;;;4.16;100.00;100678.19;5068241;28;20032;-78
2022/04/24 03:53:08;;;;;;;9.77;4.93;;;;;;;4.12;100.00;100686.31;5100207;28;20042;-78
2022/04/24 03:55:34;;;;;;;9.65;4.90;;;;;;;3.99;100.00;100686.31;5070310;28;20024;-80
2022/04/24 03:58:00;;;;;;;15.00;4.93;;;;;;;3.94;100.00;100691.00;5079572;28;20041;-79
2022/04/24 04:00:25;;;;;;;11.25;5.55;;;;;;;3.89;100.00;100678.34;5068563;28;20039;-80
2022/04/24 04:02:51;;;;;;;11.10;5.20;;;;;;;3.91;100.00;100673.88;5086912;28;20481;-79
2022/04/24 04:05:16;;;;;;;10.98;5.82;;;;;;;3.89;100.00;100679.16;5076303;28;20405;-79
2022/04/24 04:07:42;;;;;;;9.55;5.00;;;;;;;3.93;100.00;100686.75;5068814;28;20023;-79
2022/04/24 04:10:08;;;;;;;13.15;5.90;;;;;;;3.92;100.00;100687.69;5086704;28;20093;-79
2022/04/24 04:12:34;;;;;;;13.60;5.80;;;;;;;3.85;100.00;100688.09;5069467;28;20563;-80
2022/04/24 04:15:01;;;;;;;12.13;5.72;;;;;;;3.76;100.00;100680.13;5069540;28;20028;-80
2022/04/24 04:17:27;;;;;;;11.18;6.05;;;;;;;3.72;100.00;100673.47;5101551;28;20386;-79
2022/04/24 04:19:52;;;;;;;9.18;6.05;;;;;;;3.79;100.00;100679.91;5051676;28;20044;-79
2022/04/24 04:22:18;;;;;;;11.82;5.68;;;;;;;3.84;100.00;100678.69;5088126;28;20051;-78
2022/04/24 04:24:44;;;;;;;13.48;6.20;;;;;;;3.85;100.00;100688.09;5074470;28;20081;-79
2022/04/24 04:27:10;;;;;;;8.32;5.40;;;;;;;3.86;100.00;100684.59;5071903;28;20036;-77
2022/04/24 04:29:36;;;;;;;13.73;6.20;;;;;;;3.79;100.00;100678.16;5089850;28;20028;-80
2022/04/24 04:32:03;;;;;;;11.00;6.05;;;;;;;3.92;100.00;100687.69;5072163;28;20355;-79
2022/04/24 04:34:28;;;;;;;12.65;5.50;;;;;;;3.88;100.00;100685.31;5087151;28;20035;-80
2022/04/24 04:36:54;;;;;;;13.07;5.70;;;;;;;3.92;100.00;100692.88;5073621;28;20028;-80
2022/04/24 04:39:20;;;;;;;8.70;5.82;;;;;;;3.92;100.00;100685.06;5089399;28;20075;-80
2022/04/24 04:41:46;;;;;;;9.65;5.15;;;;;;;3.97;100.00;100690.78;5090397;28;20382;-79
2022/04/24 04:44:12;;;;;;;10.50;5.50;;;;;;;3.98;100.00;100677.72;5087586;28;20128;-80
2022/04/24 04:46:38;;;;;;;13.27;5.68;;;;;;;4.07;100.00;100684.06;5072859;28;20409;-79
2022/04/24 04:49:03;;;;;;;13.85;5.45;;;;;;;4.10;100.00;100689.00;5070303;28;20032;-80
2022/04/24 04:51:30;;;;;;;14.13;6.25;;;;;;;4.13;100.00;100681.03;5088389;28;20024;-78
2022/04/24 04:53:55;;;;;;;13.35;5.53;;;;;;;4.14;100.00;100685.25;5068363;28;20701;-79
2022/04/24 04:56:22;;;;;;;10.48;5.75;;;;;;;4.21;100.00;100683.09;5100101;28;20033;-79
2022/04/24 04:58:48;;;;;;;9.18;5.57;;;;;;;4.33;100.00;100691.78;5089379;28;20040;-79
2022/04/24 05:01:13;;;;;;;11.00;5.70;;;;;;;4.44;100.00;100687.47;5070895;28;20055;-79
2022/04/24 05:03:39;;;;;;;11.07;5.57;;;;;;;4.51;100.00;100685.28;5088491;28;20481;-79
2022/04/24 05:06:05;;;;;;;11.80;5.70;;;;;;;4.58;100.00;100689.13;5088784;28;20044;-79
2022/04/24 05:08:31;;;;;;;13.38;5.40;;;;;;;4.65;100.00;100699.88;5092831;28;20028;-79
2022/04/24 05:10:56;;;;;;;12.73;5.30;;;;;;;4.68;100.00;100690.13;5075050;28;20016;-79
2022/04/24 05:13:22;;;;;;;13.13;5.68;;;;;;;4.86;100.00;100700.97;5072026;28;20040;-79
2022/04/24 05:15:48;;;;;;;10.65;5.30;;;;;;;4.93;100.00;100701.34;5072934;28;20486;-79
2022/04/24 05:18:13;;;;;;;15.00;6.40;;;;;;;5.04;100.00;100695.38;5070825;28;20517;-79
2022/04/24 05:20:39;;;;;;;15.77;6.30;;;;;;;5.10;100.00;100702.72;5077189;28;20034;-79
2022/04/24 05:23:06;;;;;;;14.25;5.53;;;;;;;5.13;100.00;100693.88;5076015;28;20040;-78
2022/04/24 05:25:32;;;;;;;10.38;4.78;;;;;;;5.17;100.00;100695.31;5071740;28;20036;-79
2022/04/24 05:27:58;;;;;;;10.93;5.22;;;;;;;5.32;100.00;100695.94;5089014;28;20039;-78
2022/04/24 05:30:23;;;;;;;14.05;6.45;;;;;;;5.41;100.00;100703.91;5094686;28;20036;-78
2022/04/24 05:32:51;;;;;;;13.07;5.65;;;;;;;5.43;100.00;100693.38;5089389;28;20039;-80
2022/04/24 05:35:17;;;;;;;9.20;4.82;;;;;;;5.59;100.00;100699.06;5071576;28;20032;-79
2022/04/24 05:37:45;;;;;;;11.38;5.25;;;;;;;5.72;100.00;100698.16;5056226;28;20036;-80
2022/04/24 05:40:12;;;;;;;10.38;5.30;;;;;;;5.74;100.00;100693.66;5072317;28;20100;-80
2022/04/24 05:42:53;;;;;;;10.10;5.30;;;;;;;5.80;100.00;100707.06;5055569;28;20028;-80
2022/04/24 05:45:22;;;;;;;9.45;4.88;;;;;;;5.80;100.00;100699.25;5089972;28;20852;-81
2022/04/24 05:47:49;;;;;;;12.65;4.93;;;;;;;5.97;100.00;100697.16;5088554;28;20393;-80
2022/04/24 05:50:15;;;;;;;9.43;5.07;;;;;;;5.98;100.00;100702.25;5072893;28;20477;-81
2022/04/24 05:52:42;;;;;;;9.50;5.00;;;;;;;6.06;100.00;100699.03;5051299;28;20025;-77
2022/04/24 05:55:08;;;;;;;10.70;5.10;;;;;;;6.15;100.00;100703.53;5085672;28;20113;-75
2022/04/24 05:57:35;;;;;;;8.88;4.88;;;;;;;6.14;100.00;100690.63;5072023;28;20051;-78
2022/04/24 06:00:00;;;;;;;8.45;4.72;;;;;;;6.24;100.00;100695.03;5071417;28;20105;-79
2022/04/24 06:02:26;;;;;;;11.98;4.60;;;;;;;6.24;100.00;100697.63;5086724;28;20028;-80
2022/04/24 06:04:53;;;;;;;11.32;5.20;;;;;;;6.32;100.00;100704.03;5072442;28;20371;-79
2022/04/24 06:07:19;;;;;;;10.68;4.90;;;;;;;6.40;100.00;100697.28;5055086;28;20035;-79
2022/04/24 06:09:44;;;;;;;9.15;4.28;;;;;;;6.52;100.00;100700.69;5053997;28;20031;-78
2022/04/24 06:12:10;;;;;;;10.18;4.70;;;;;;;6.63;100.00;100705.06;5073227;28;20029;-79
2022/04/24 06:14:36;;;;;;;9.93;4.30;;;;;;;6.86;100.00;100700.59;5056964;28;20074;-79
2022/04/24 06:17:01;;;;;;;7.55;4.43;;;;;;;7.12;100.00;100702.84;5070321;28;20039;-79
2022/04/24 06:19:27;;;;;;;8.98;4.47;;;;;;;7.02;100.00;100708.81;5070538;28;20039;-77
2022/04/24 06:21:53;;;;;;;7.75;3.83;;;;;;;6.98;100.00;100702.19;5089378;28;20520;-79
2022/04/24 06:24:19;;;;;;;12.95;4.45;;;;;;;6.99;100.00;100705.66;5103324;28;20103;-80
2022/04/24 06:26:45;;;;;;;9.15;4.45;;;;;;;6.97;100.00;100697.13;5089958;28;20038;-78
2022/04/24 06:29:12;;;;;;;9.27;4.68;;;;;;;7.17;100.00;100700.72;5072372;28;20060;-80
2022/04/24 06:31:37;;;;;;;11.02;4.13;;;;;;;7.27;100.00;100679.91;5087518;28;20115;-79
2022/04/24 06:34:03;;;;;;;13.68;4.55;;;;;;;7.56;100.00;100699.19;5088828;28;20595;-79
2022/04/24 06:36:29;;;;;;;13.07;4.80;;;;;;;7.46;100.00;100687.03;5088755;28;20031;-79
2022/04/24 06:38:54;;;;;;;9.07;4.53;;;;;;;7.49;99.46;100689.41;5058013;28;20032;-78
2022/04/24 06:41:20;;;;;;;10.65;4.70;;;;;;;7.59;99.15;100688.53;5071923;28;20109;-80
2022/04/24 06:43:45;;;;;;;7.72;4.38;;;;;;;7.63;99.75;100686.47;5070002;28;20107;-78
2022/04/24 06:46:11;;;;;;;12.18;5.47;;;;;;;7.77;98.49;100680.91;5050104;28;20029;-79
2022/04/24 06:48:36;;;;;;;12.68;4.85;;;;;;;7.74;98.60;100682.94;5089986;28;20028;-79
2022/04/24 06:51:02;;;;;;;11.13;4.97;;;;;;;7.91;98.73;100682.38;5070183;28;20028;-77
2022/04/24 06:53:28;;;;;;;10.85;5.03;;;;;;;8.01;97.01;100687.63;5071259;28;20382;-78
2022/04/24 06:55:54;;;;;;;8.98;4.60;;;;;;;8.14;96.10;100669.94;5088462;28;20126;-77
2022/04/24 06:58:20;;;;;;;8.43;4.25;;;;;;;8.08;95.31;100680.06;5057538;28;20111;-79
2022/04/24 07:00:47;;;;;;;7.13;4.32;;;;;;;8.05;95.16;100675.13;5069944;28;20046;-79
2022/04/24 07:03:16;;;;;;;9.43;4.50;;;;;;;8.22;94.79;100671.88;5071489;28;20545;-79
2022/04/24 07:05:42;;;;;;;9.50;4.45;;;;;;;8.50;94.63;100680.78;5070692;28;20089;-80
2022/04/24 07:08:08;;;;;;;10.13;4.43;;;;;;;8.45;95.59;100682.97;5085565;28;20063;-80
2022/04/24 07:10:35;;;;;;;9.57;3.85;;;;;;;8.56;92.74;100682.88;5089593;28;20115;-79
2022/04/24 07:13:01;;;;;;;10.27;4.22;;;;;;;8.57;92.82;100676.69;5070586;28;20038;-78
2022/04/24 07:15:34;;;;;;;10.90;4.40;;;;;;;8.44;93.07;100675.25;5071279;28;20394;-78
2022/04/24 07:18:01;;;;;;;9.38;4.13;;;;;;;8.73;91.63;100680.56;5083381;28;20050;-78
2022/04/24 07:20:29;;;;;;;11.15;4.18;;;;;;;8.76;90.14;100686.34;5069999;28;20040;-79
2022/04/24 07:22:58;;;;;;;12.77;4.47;;;;;;;8.69;90.96;100669.53;5070130;28;20028;-79
2022/04/24 07:25:25;;;;;;;8.02;3.53;;;;;;;9.02;90.16;100677.13;5087769;28;20040;-78
2022/04/24 07:27:51;;;;;;;10.27;3.90;;;;;;;9.11;89.20;100668.44;5054989;28;20067;-79
2022/04/24 07:30:19;;;;;;;9.82;3.35;;;;;;;9.34;88.83;100666.34;5089182;28;20074;-77
2022/04/24 07:32:53;;;;;;;6.60;3.53;;;;;;;9.33;86.60;100670.75;5055701;28;20078;-79
2022/04/24 07:35:25;;;;;;;6.13;3.50;;;;;;;9.21;85.95;100666.66;5073583;28;20063;-79
2022/04/24 07:37:52;;;;;;;5.57;3.25;;;;;;;9.17;87.17;100670.50;5060025;28;20409;-78
2022/04/24 07:40:19;;;;;;;8.25;4.20;;;;;;;9.37;86.97;100665.25;5079249;28;20442;-78
2022/04/24 07:42:53;;;;;;;14.55;3.55;;;;;;;9.41;85.76;100677.91;5105132;28;20164;-78
2022/04/24 07:45:22;;;;;;;10.95;4.00;;;;;;;9.43;85.77;100667.31;5052121;28;20129;-79
2022/04/24 07:47:48;;;;;;;9.00;3.90;;;;;;;9.69;85.53;100670.16;5082041;28;20088;-78
2022/04/24 07:50:16;;;;;;;7.10;3.63;;;;;;;9.52;84.99;100651.56;5087598;28;20043;-78
2022/04/24 07:52:43;;;;;;;8.25;3.97;;;;;;;9.90;82.52;100654.22;5074710;28;20105;-78
2022/04/24 07:55:11;;;;;;;6.25;2.92;;;;;;;10.10;81.47;100663.63;5070262;28;20379;-78
2022/04/24 07:57:38;;;;;;;7.10;3.60;;;;;;;10.43;81.00;100671.09;5088959;28;20024;-79
2022/04/24 08:00:04;;;;;;;5.85;3.53;;;;;;;10.49;81.36;100667.84;5085907;28;20807;-79
2022/04/24 08:02:48;;;;;;;5.50;3.35;;;;;;;10.56;81.28;100668.94;5087642;28;20042;-80
2022/04/24 08:05:28;;;;;;;7.07;3.17;;;;;;;10.57;77.56;100657.47;5089661;28;20494;-79
2022/04/24 08:07:55;;;;;;;4.82;3.17;;;;;;;10.48;76.64;100666.22;5074208;28;20490;-77
2022/04/24 08:10:22;;;;;;;8.07;3.42;;;;;;;10.62;78.11;100667.50;5087842;28;20048;-76
2022/04/24 08:12:48;;;;;;;4.78;3.13;;;;;;;10.60;75.78;100659.78;5087473;28;20032;-78
2022/04/24 08:15:14;;;;;;;8.40;2.97;;;;;;;10.52;75.29;100663.16;5064436;28;20135;-78
2022/04/24 08:17:40;;;;;;;6.30;2.97;;;;;;;10.43;75.57;100661.41;5090024;28;20028;-78
2022/04/24 08:20:08;;;;;;;8.35;3.33;;;;;;;10.51;75.77;100658.91;5071144;28;20583;-76
2022/04/24 08:23:01;;;;;;;6.07;2.97;;;;;;;10.58;78.12;100661.72;5063656;28;20036;-77
2022/04/24 08:25:29;;;;;;;9.27;2.95;;;;;;;10.50;75.51;100654.59;5087438;28;20044;-77
2022/04/24 08:27:56;;;;;;;7.35;3.17;;;;;;;10.66;75.78;100653.97;5088221;28;20036;-79
2022/04/24 08:30:23;;;;;;;6.10;2.78;;;;;;;11.00;74.13;100661.16;5086452;28;20052;-78
2022/04/24 08:32:49;;;;;;;5.72;2.80;;;;;;;10.88;72.22;100639.56;5089309;28;20036;-77
2022/04/24 08:35:17;;;;;;;6.50;2.67;;;;;;;10.65;72.75;100654.09;5087056;28;20049;-78
2022/04/24 08:37:44;;;;;;;5.45;2.65;;;;;;;11.09;75.65;100649.75;5087035;28;20083;-77
2022/04/24 08:40:12;;;;;;;6.50;2.63;;;;;;;11.08;72.98;100661.22;5086990;28;20036;-77
2022/04/24 08:42:39;;;;;;;5.40;2.67;;;;;;;11.17;73.35;100656.03;5088563;28;20039;-78
2022/04/24 08:45:07;;;;;;;10.25;2.83;;;;;;;11.12;71.76;100647.81;5070444;28;20120;-76
2022/04/24 08:47:32;;;;;;;5.63;2.90;;;;;;;11.11;71.14;100644.31;5082621;28;20077;-77
2022/04/24 08:50:00;;;;;;;6.10;3.00;;;;;;;11.58;73.12;100643.97;5072167;28;20043;-76
2022/04/24 08:52:27;;;;;;;6.10;3.03;;;;;;;11.64;72.00;100646.00;5068899;28;20071;-78
2022/04/24 08:54:54;;;;;;;3.47;2.63;;;;;;;11.68;71.83;100643.91;5086484;28;20028;-77
2022/04/24 08:57:26;;;;;;;10.55;2.65;;;;;;;11.94;69.65;100643.91;5085295;28;20035;-76
2022/04/24 08:59:59;;;;;;;5.97;2.75;;;;;;;11.72;70.66;100636.53;5071530;28;20039;-78
2022/04/24 09:02:25;;;;;;;7.78;2.53;;;;;;;11.51;69.06;100648.25;5088635;28;20137;-77
2022/04/24 09:04:54;;;;;;;6.68;2.63;;;;;;;11.43;67.08;100633.25;5070990;28;20043;-78
2022/04/24 09:07:21;;;;;;;6.18;2.67;;;;;;;11.59;70.14;100637.75;5069866;28;20063;-76
2022/04/24 09:09:51;;;;;;;6.72;2.42;;;;;;;11.93;69.73;100654.56;5088930;28;20062;-77
2022/04/24 09:12:21;;;;;;;4.95;2.40;;;;;;;11.59;67.26;100637.75;5086671;28;20028;-79
2022/04/24 09:14:48;;;;;;;6.65;2.78;;;;;;;11.87;69.33;100643.66;5085622;28;20034;-78
2022/04/24 09:17:21;;;;;;;8.95;2.42;;;;;;;11.93;68.58;100646.69;5087144;28;20032;-77
2022/04/24 09:19:49;;;;;;;7.15;2.85;;;;;;;11.93;69.19;100639.59;5071814;28;20126;-78
2022/04/24 09:22:15;;;;;;;5.95;2.50;;;;;;;12.04;69.58;100641.94;5073041;28;20027;-77
2022/04/24 09:24:55;;;;;;;4.72;2.70;;;;;;;12.06;68.52;100634.72;5087587;28;20035;-77
2022/04/24 09:27:42;;;;;;;6.05;2.80;;;;;;;12.10;69.58;100640.50;5067873;28;20046;-78
2022/04/24 09:30:15;;;;;;;8.32;2.55;;;;;;;11.84;69.26;100628.19;5084354;28;20044;-76
2022/04/24 09:32:53;;;;;;;6.75;2.45;;;;;;;12.15;70.04;100634.75;5052919;28;20123;-77
2022/04/24 09:35:33;;;;;;;5.65;2.75;;;;;;;12.22;69.05;100639.25;5077197;28;20123;-76
2022/04/24 09:38:09;;;;;;;8.05;2.63;;;;;;;12.18;68.63;100634.44;5071351;28;20032;-79
2022/04/24 09:40:40;;;;;;;10.10;3.00;;;;;;;12.20;68.56;100643.00;5053897;28;20029;-78
2022/04/24 09:43:10;;;;;;;6.55;2.53;;;;;;;12.21;69.85;100642.03;5082561;28;20036;-76
2022/04/24 09:45:37;;;;;;;8.32;2.70;;;;;;;12.11;68.92;100650.03;5085458;28;20064;-76
2022/04/24 09:48:14;;;;;;;7.78;2.85;;;;;;;11.49;69.51;100632.63;5085954;28;20063;-76
2022/04/24 09:50:39;;;;;;;4.65;2.45;;;;;;;11.75;69.33;100642.28;5079695;28;20077;-77
2022/04/24 09:53:05;;;;;;;5.55;2.40;;;;;;;12.21;69.48;100645.47;5086150;28;20032;-79
2022/04/24 09:55:31;;;;;;;7.53;2.92;;;;;;;12.65;67.50;100650.50;5083168;28;20505;-77
2022/04/24 09:57:57;;;;;;;6.40;2.80;;;;;;;11.67;69.11;100647.50;5067771;28;20040;-76
2022/04/24 10:00:23;;;;;;;5.90;2.92;;;;;;;11.23;70.98;100653.63;5068697;28;20619;-77
2022/04/24 10:02:52;;;;;;;6.18;2.85;;;;;;;11.58;69.65;100651.88;5108064;27;20036;-77
2022/04/24 10:05:18;;;;;;;6.80;2.85;;;;;;;11.64;72.20;100653.06;5069049;28;20035;-78
2022/04/24 10:07:45;;;;;;;6.15;2.83;;;;;;;12.12;69.85;100664.00;5076160;28;20032;-77
2022/04/24 10:10:11;;;;;;;8.13;2.85;;;;;;;11.36;71.41;100660.25;5070346;28;20040;-76
2022/04/24 10:12:38;;;;;;;7.90;3.10;;;;;;;11.71;70.72;100656.72;5077424;28;20035;-78
2022/04/24 10:15:12;;;;;;;6.95;3.00;;;;;;;11.76;70.21;100662.31;5087027;28;20073;-77
2022/04/24 10:18:10;;;;;;;9.07;2.90;;;;;;;12.23;71.82;100658.47;5089026;28;20031;-75
2022/04/24 10:21:13;;;;;;;5.43;2.72;;;;;;;12.47;68.54;100670.88;5077827;28;20059;-76
2022/04/24 10:23:38;;;;;;;;;;;;;;;11.79;71.18;100672.53;5070286;28;20039;-78
2022/04/24 10:26:19;;;;;;;6.53;2.83;;;;;;;11.98;71.39;100670.66;5071112;28;20689;-78
2022/04/24 10:28:47;;;;;;;5.97;2.88;;;;;;;12.06;70.66;100662.84;5086934;28;20032;-79
2022/04/24 10:31:14;;;;;;;8.50;2.90;;;;;;;12.13;72.25;100663.00;5086938;28;20032;-78
2022/04/24 10:33:51;;;;;;;6.35;2.75;;;;;;;13.04;69.27;100670.94;5087345;28;20039;-78
2022/04/24 10:36:17;;;;;;;6.55;2.85;;;;;;;12.43;68.74;100675.63;5068351;28;20039;-78
2022/04/24 10:38:59;;;;;;;6.15;3.00;;;;;;;11.70;71.41;100652.44;5080810;28;21576;-77
2022/04/24 10:41:29;;;;;;;5.85;3.13;;;;;;;12.05;71.62;100656.75;5087217;28;20028;-77
2022/04/24 10:44:06;;;;;;;6.90;3.00;;;;;;;12.27;72.86;100657.97;5071069;28;20035;-80
2022/04/24 10:46:35;;;;;;;7.05;2.92;;;;;;;12.29;72.35;100652.56;5066942;28;20039;-77
2022/04/24 10:49:12;;;;;;;5.95;2.92;;;;;;;12.39;71.40;100658.50;5087460;28;20088;-77
2022/04/24 10:51:43;;;;;;;12.20;3.38;;;;;;;11.84;71.83;100651.84;5064090;28;20054;-79
2022/04/24 10:54:16;;;;;;;11.10;3.00;;;;;;;12.14;72.10;100654.16;5053984;28;20063;-76
2022/04/24 10:56:45;;;;;;;10.57;3.10;;;;;;;12.57;71.46;100650.50;5068333;28;20081;-78
2022/04/24 10:59:16;;;;;;;7.70;3.03;;;;;;;12.24;72.97;100647.78;5053459;28;20040;-76
2022/04/24 11:01:43;;;;;;;9.60;3.00;;;;;;;12.38;71.68;100646.34;5086982;28;20645;-77
2022/04/24 11:04:11;;;;;;;8.48;3.38;;;;;;;12.29;72.46;100644.66;5084530;28;20406;-78
2022/04/24 11:06:37;;;;;;;7.80;2.83;;;;;;;12.54;72.41;100631.56;5076305;28;20075;-77
2022/04/24 11:09:12;;;;;;;13.48;2.90;;;;;;;13.06;70.51;100647.06;5083079;28;20114;-76
2022/04/24 11:11:48;;;;;;;8.48;3.20;;;;;;;12.97;71.27;100655.97;5102806;28;20036;-77
2022/04/24 11:14:19;;;;;;;9.00;3.50;;;;;;;13.03;70.13;100642.13;5086403;28;20035;-76
2022/04/24 11:16:49;;;;;;;8.15;3.10;;;;;;;13.22;69.50;100647.06;5084946;28;20513;-77
2022/04/24 11:19:29;;;;;;;8.52;3.33;;;;;;;13.54;69.83;100645.41;5093450;28;20493;-79
2022/04/24 11:21:59;;;;;;;9.10;3.35;;;;;;;12.84;69.54;100648.53;5087175;28;20531;-76
2022/04/24 11:24:27;;;;;;;7.20;3.17;;;;;;;12.23;72.91;100646.13;5068574;28;20150;-76
2022/04/24 11:26:54;;;;;;;8.20;3.45;;;;;;;12.14;73.16;100644.44;5084282;28;20047;-78